Time;durP1;ratioP1;P1;durP2;ratioP2;P2;SDS_P1;SDS_P2;PMS_P1;PMS_P2;Temp;Humidity;BMP_temperature;BMP_pressure;BME280_temperature;BME280_humidity;BME280_pressure;Samples;Min_cycle;Max_cycle;Signal;HPM_P1;HPM_P2
2022/12/29 00:03:21;;;;;;;0.57;0.20;;;;;;;;;;20888970;22;20226;-69
2022/12/29 00:44:25;;;;;;;0.53;0.30;;;;;;;;;;20874234;28;20214;-68
2022/12/29 00:54:28;;;;;;;0.10;0.10;;;;;;;;;;20887660;28;20213;-69
2022/12/29 01:04:30;;;;;;;0.30;0.30;;;;;;;;;;20853641;28;20248;-69
2022/12/29 01:14:31;;;;;;;0.43;0.20;;;;;;;;;;20853542;28;20276;-69
2022/12/29 01:24:33;;;;;;;0.10;0.10;;;;;;;;;;20853034;28;20205;-68
2022/12/29 01:34:35;;;;;;;0.47;0.23;;;;;;;;;;20852357;28;20276;-69
2022/12/29 01:44:55;;;;;;;0.93;0.67;;;8.70;99.90;;;;;;20868585;28;20233;-69
2022/12/29 01:54:59;;;;;;;1.33;0.20;;;9.40;99.90;;;;;;20851939;28;20708;-69
2022/12/29 02:05:07;;;;;;;0.33;0.17;;;;;;;;;;20851001;28;20222;-68
2022/12/29 02:15:10;;;;;;;0.60;0.30;;;;;;;;;;20876133;28;20761;-69
2022/12/29 02:25:44;;;;;;;0.50;0.40;;;;;;;;;;20866957;28;20218;-69
2022/12/29 02:36:11;;;;;;;0.30;0.30;;;9.30;99.90;;;;;;20823818;28;20260;-69
2022/12/29 02:46:30;;;;;;;0.20;0.20;;;9.80;99.90;;;;;;20880912;28;20707;-69
2022/12/29 02:56:33;;;;;;;0.73;0.30;;;;;;;;;;20877833;28;20602;-69
2022/12/29 03:07:04;;;;;;;0.30;0.30;;;9.90;99.90;;;;;;20854761;28;20288;-69
2022/12/29 03:17:10;;;;;;;0.20;0.20;;;;;;;;;;20861182;28;20222;-69
2022/12/29 03:27:17;;;;;;;0.33;0.30;;;9.80;99.90;;;;;;20854849;28;20202;-69
2022/12/29 03:37:23;;;;;;;0.47;0.30;;;9.90;99.90;;;;;;20861225;28;20259;-69
2022/12/29 03:47:26;;;;;;;2.17;0.40;;;10.10;99.90;;;;;;20860344;28;20407;-70
2022/12/29 03:57:28;;;;;;;0.37;0.30;;;;;;;;;;20845058;28;20264;-69
2022/12/29 04:07:35;;;;;;;0.40;0.20;;;;;;;;;;20859444;28;20213;-69
2022/12/29 04:17:39;;;;;;;1.73;0.37;;;;;;;;;;20873062;28;20205;-69
2022/12/29 04:27:42;;;;;;;0.10;0.10;;;;;;;;;;20873081;28;20230;-69
2022/12/29 04:37:58;;;;;;;0.40;0.40;;;;;;;;;;20857587;28;20263;-69
2022/12/29 04:48:01;;;;;;;0.20;0.20;;;;;;;;;;20871203;28;20233;-69
2022/12/29 04:58:13;;;;;;;0.10;0.10;;;;;;;;;;20873690;28;20237;-69
2022/12/29 05:08:15;;;;;;;0.10;0.10;;;;;;;;;;20870047;28;20241;-69
2022/12/29 05:18:18;;;;;;;0.10;0.10;;;9.60;99.90;;;;;;20852287;28;20214;-69
2022/12/29 05:28:20;;;;;;;0.93;0.43;;;;;;;;;;20864979;28;20699;-69
2022/12/29 05:38:32;;;;;;;0.20;0.20;;;;;;;;;;20854083;28;20283;-69
2022/12/29 05:48:34;;;;;;;0.20;0.20;;;;;;;;;;20878621;28;20444;-69
2022/12/29 05:58:50;;;;;;;0.40;0.40;;;;;;;;;;20884657;28;20760;-69
2022/12/29 06:08:53;;;;;;;0.53;0.43;;;;;;;;;;20866061;28;20692;-69
2022/12/29 06:18:55;;;;;;;0.57;0.30;;;;;;;;;;20866735;28;20268;-69
2022/12/29 06:28:58;;;;;;;0.33;0.27;;;;;;;;;;20881907;28;20229;-69
2022/12/29 06:39:00;;;;;;;0.67;0.23;;;;;;;;;;20865106;28;20347;-69
2022/12/29 06:49:02;;;;;;;0.30;0.30;;;;;;;;;;20862787;28;20217;-69
2022/12/29 06:59:04;;;;;;;1.10;0.40;;;;;;;;;;20882382;22;20528;-67
2022/12/29 07:09:08;;;;;;;2.97;0.30;;;10.40;99.90;;;;;;20945330;28;20290;-68
2022/12/29 07:19:10;;;;;;;1.00;0.60;;;;;;;;;;20968489;28;20623;-68
2022/12/29 07:29:12;;;;;;;0.37;0.30;;;;;;;;;;21025530;28;20232;-68
2022/12/29 07:39:14;;;;;;;0.20;0.20;;;;;;;;;;21013171;28;20273;-68
2022/12/29 07:49:16;;;;;;;0.50;0.30;;;;;;;;;;21026861;28;20612;-68
2022/12/29 07:59:18;;;;;;;0.40;0.40;;;;;;;;;;20989578;28;20286;-67
2022/12/29 08:09:20;;;;;;;0.40;0.40;;;;;;;;;;20975281;28;20221;-67
2022/12/29 08:19:22;;;;;;;0.40;0.40;;;;;;;;;;20973683;28;20220;-67
2022/12/29 08:29:24;;;;;;;0.60;0.30;;;;;;;;;;21030006;28;20212;-68
2022/12/29 08:39:27;;;;;;;1.17;0.27;;;;;;;;;;20967171;28;20663;-68
2022/12/29 08:49:28;;;;;;;0.30;0.30;;;;;;;;;;20854910;28;20639;-68
2022/12/29 08:59:31;;;;;;;0.37;0.37;;;;;;;;;;20870288;28;20234;-68
2022/12/29 09:09:33;;;;;;;1.10;0.47;;;11.10;99.90;;;;;;20853485;28;20222;-68
2022/12/29 09:19:35;;;;;;;0.37;0.30;;;;;;;;;;20836803;28;20668;-68
2022/12/29 09:29:37;;;;;;;0.57;0.37;;;;;;;;;;20868170;28;20717;-68
